sensor_id;sensor_type;location;lat;lon;timestamp;temperature;humidity
9730;DHT22;4904;49.152;11.004;2023-05-07T00:00:25;11.80;99.90
9730;DHT22;4904;49.152;11.004;2023-05-07T00:02:51;11.80;99.90
9730;DHT22;4904;49.152;11.004;2023-05-07T00:05:19;11.80;99.90
9730;DHT22;4904;49.152;11.004;2023-05-07T00:07:46;11.80;99.90
9730;DHT22;4904;49.152;11.004;2023-05-07T00:10:13;11.80;99.90
9730;DHT22;4904;49.152;11.004;2023-05-07T00:12:40;12.00;99.90
9730;DHT22;4904;49.152;11.004;2023-05-07T00:15:09;11.80;99.90
9730;DHT22;4904;49.152;11.004;2023-05-07T00:17:36;11.80;99.90
9730;DHT22;4904;49.152;11.004;2023-05-07T00:20:04;11.70;99.90
9730;DHT22;4904;49.152;11.004;2023-05-07T00:22:32;11.80;99.90
9730;DHT22;4904;49.152;11.004;2023-05-07T00:24:58;11.70;99.90
9730;DHT22;4904;49.152;11.004;2023-05-07T00:27:26;11.10;99.90
9730;DHT22;4904;49.152;11.004;2023-05-07T00:29:52;10.90;99.90
9730;DHT22;4904;49.152;11.004;2023-05-07T00:32:20;11.00;99.90
9730;DHT22;4904;49.152;11.004;2023-05-07T00:34:47;11.10;99.90
9730;DHT22;4904;49.152;11.004;2023-05-07T00:37:16;10.70;99.90
9730;DHT22;4904;49.152;11.004;2023-05-07T00:39:43;10.90;99.90
9730;DHT22;4904;49.152;11.004;2023-05-07T00:42:10;10.90;99.90
9730;DHT22;4904;49.152;11.004;2023-05-07T00:44:36;10.90;99.90
9730;DHT22;4904;49.152;11.004;2023-05-07T00:47:05;11.00;99.90
9730;DHT22;4904;49.152;11.004;2023-05-07T00:49:38;10.70;99.90
9730;DHT22;4904;49.152;11.004;2023-05-07T00:52:06;10.50;99.90
9730;DHT22;4904;49.152;11.004;2023-05-07T00:54:34;10.50;99.90
9730;DHT22;4904;49.152;11.004;2023-05-07T00:57:02;10.70;99.90
9730;DHT22;4904;49.152;11.004;2023-05-07T00:59:29;10.90;99.90
9730;DHT22;4904;49.152;11.004;2023-05-07T01:01:57;11.10;99.90
9730;DHT22;4904;49.152;11.004;2023-05-07T01:04:24;11.20;99.90
9730;DHT22;4904;49.152;11.004;2023-05-07T01:06:52;11.40;99.90
9730;DHT22;4904;49.152;11.004;2023-05-07T01:09:21;11.40;99.90
9730;DHT22;4904;49.152;11.004;2023-05-07T01:11:49;11.40;99.90
9730;DHT22;4904;49.152;11.004;2023-05-07T01:14:17;11.50;99.90
9730;DHT22;4904;49.152;11.004;2023-05-07T01:16:44;11.50;99.90
9730;DHT22;4904;49.152;11.004;2023-05-07T01:19:12;11.20;99.90
9730;DHT22;4904;49.152;11.004;2023-05-07T01:21:45;11.00;99.90
9730;DHT22;4904;49.152;11.004;2023-05-07T01:24:14;10.80;99.90
9730;DHT22;4904;49.152;11.004;2023-05-07T01:26:42;10.40;99.90
9730;DHT22;4904;49.152;11.004;2023-05-07T01:29:09;10.40;99.90
9730;DHT22;4904;49.152;11.004;2023-05-07T01:31:37;10.40;99.90
9730;DHT22;4904;49.152;11.004;2023-05-07T01:34:07;10.50;99.90
9730;DHT22;4904;49.152;11.004;2023-05-07T01:36:37;10.70;99.90
9730;DHT22;4904;49.152;11.004;2023-05-07T01:39:06;10.80;99.90
9730;DHT22;4904;49.152;11.004;2023-05-07T01:41:35;10.60;99.90
9730;DHT22;4904;49.152;11.004;2023-05-07T01:44:03;10.20;99.90
9730;DHT22;4904;49.152;11.004;2023-05-07T01:46:31;10.30;99.90
9730;DHT22;4904;49.152;11.004;2023-05-07T01:48:59;10.30;99.90
9730;DHT22;4904;49.152;11.004;2023-05-07T01:54:48;10.60;99.90
9730;DHT22;4904;49.152;11.004;2023-05-07T01:57:16;10.20;99.90
9730;DHT22;4904;49.152;11.004;2023-05-07T01:59:43;10.10;99.90
9730;DHT22;4904;49.152;11.004;2023-05-07T02:02:10;10.20;99.90
9730;DHT22;4904;49.152;11.004;2023-05-07T02:04:36;10.20;99.90
9730;DHT22;4904;49.152;11.004;2023-05-07T02:07:03;10.30;99.90
9730;DHT22;4904;49.152;11.004;2023-05-07T02:09:30;10.60;99.90
9730;DHT22;4904;49.152;11.004;2023-05-07T02:11:57;10.70;99.90
9730;DHT22;4904;49.152;11.004;2023-05-07T02:14:25;10.80;99.90
9730;DHT22;4904;49.152;11.004;2023-05-07T02:16:52;10.90;99.90
9730;DHT22;4904;49.152;11.004;2023-05-07T02:19:19;10.80;99.90
9730;DHT22;4904;49.152;11.004;2023-05-07T02:21:46;10.70;99.90
9730;DHT22;4904;49.152;11.004;2023-05-07T02:24:13;10.70;99.90
9730;DHT22;4904;49.152;11.004;2023-05-07T02:26:40;10.80;99.90
9730;DHT22;4904;49.152;11.004;2023-05-07T02:29:07;10.90;99.90
9730;DHT22;4904;49.152;11.004;2023-05-07T02:31:35;10.80;99.90
9730;DHT22;4904;49.152;11.004;2023-05-07T02:34:02;10.70;99.90
9730;DHT22;4904;49.152;11.004;2023-05-07T02:36:29;10.70;99.90
9730;DHT22;4904;49.152;11.004;2023-05-07T02:38:56;10.70;99.90
9730;DHT22;4904;49.152;11.004;2023-05-07T02:41:23;10.70;99.90
9730;DHT22;4904;49.152;11.004;2023-05-07T02:43:49;10.70;99.90
9730;DHT22;4904;49.152;11.004;2023-05-07T02:46:16;10.60;99.90
9730;DHT22;4904;49.152;11.004;2023-05-07T02:48:44;10.50;99.90
9730;DHT22;4904;49.152;11.004;2023-05-07T02:51:11;10.60;99.90
9730;DHT22;4904;49.152;11.004;2023-05-07T02:53:38;10.40;99.90
9730;DHT22;4904;49.152;11.004;2023-05-07T02:56:05;10.20;99.90
9730;DHT22;4904;49.152;11.004;2023-05-07T02:58:32;10.20;99.90
9730;DHT22;4904;49.152;11.004;2023-05-07T03:00:59;10.20;99.90
9730;DHT22;4904;49.152;11.004;2023-05-07T03:03:26;10.20;99.90
9730;DHT22;4904;49.152;11.004;2023-05-07T03:05:54;10.30;99.90
9730;DHT22;4904;49.152;11.004;2023-05-07T03:08:21;10.30;99.90
9730;DHT22;4904;49.152;11.004;2023-05-07T03:10:48;10.30;99.90
9730;DHT22;4904;49.152;11.004;2023-05-07T03:13:15;10.30;99.90
9730;DHT22;4904;49.152;11.004;2023-05-07T03:15:42;10.30;99.90
9730;DHT22;4904;49.152;11.004;2023-05-07T03:18:08;10.20;99.90
9730;DHT22;4904;49.152;11.004;2023-05-07T03:20:36;10.20;99.90
9730;DHT22;4904;49.152;11.004;2023-05-07T03:23:04;10.20;99.90
9730;DHT22;4904;49.152;11.004;2023-05-07T03:25:31;10.20;99.90
9730;DHT22;4904;49.152;11.004;2023-05-07T03:27:59;10.30;99.90
9730;DHT22;4904;49.152;11.004;2023-05-07T03:30:26;10.20;99.90
9730;DHT22;4904;49.152;11.004;2023-05-07T03:32:52;10.20;99.90
9730;DHT22;4904;49.152;11.004;2023-05-07T03:35:19;10.30;99.90
9730;DHT22;4904;49.152;11.004;2023-05-07T03:37:46;10.30;99.90
9730;DHT22;4904;49.152;11.004;2023-05-07T03:40:14;10.40;99.90
9730;DHT22;4904;49.152;11.004;2023-05-07T03:42:41;10.40;99.90
9730;DHT22;4904;49.152;11.004;2023-05-07T03:45:09;10.50;99.90
9730;DHT22;4904;49.152;11.004;2023-05-07T03:47:36;10.60;99.90
9730;DHT22;4904;49.152;11.004;2023-05-07T03:50:03;10.60;99.90
9730;DHT22;4904;49.152;11.004;2023-05-07T03:52:30;10.60;99.90
9730;DHT22;4904;49.152;11.004;2023-05-07T03:54:57;10.50;99.90
9730;DHT22;4904;49.152;11.004;2023-05-07T03:57:25;10.50;99.90
9730;DHT22;4904;49.152;11.004;2023-05-07T03:59:52;10.50;99.90
9730;DHT22;4904;49.152;11.004;2023-05-07T04:02:19;10.50;99.90
9730;DHT22;4904;49.152;11.004;2023-05-07T04:04:45;10.50;99.90
9730;DHT22;4904;49.152;11.004;2023-05-07T04:07:14;10.50;99.90
9730;DHT22;4904;49.152;11.004;2023-05-07T04:09:41;10.50;99.90
9730;DHT22;4904;49.152;11.004;2023-05-07T04:12:08;10.50;99.90
9730;DHT22;4904;49.152;11.004;2023-05-07T04:14:36;10.50;99.90
9730;DHT22;4904;49.152;11.004;2023-05-07T04:17:03;10.50;99.90
9730;DHT22;4904;49.152;11.004;2023-05-07T04:19:33;10.40;99.90
9730;DHT22;4904;49.152;11.004;2023-05-07T04:22:00;10.20;99.90
9730;DHT22;4904;49.152;11.004;2023-05-07T04:24:26;10.20;99.90
9730;DHT22;4904;49.152;11.004;2023-05-07T04:26:53;10.40;99.90
9730;DHT22;4904;49.152;11.004;2023-05-07T04:29:20;10.50;99.90
9730;DHT22;4904;49.152;11.004;2023-05-07T04:31:48;10.50;99.90
9730;DHT22;4904;49.152;11.004;2023-05-07T04:34:15;10.60;99.90
9730;DHT22;4904;49.152;11.004;2023-05-07T04:36:42;10.60;99.90
9730;DHT22;4904;49.152;11.004;2023-05-07T04:39:09;10.60;99.90
9730;DHT22;4904;49.152;11.004;2023-05-07T04:41:36;10.60;99.90
9730;DHT22;4904;49.152;11.004;2023-05-07T04:44:03;10.60;99.90
9730;DHT22;4904;49.152;11.004;2023-05-07T04:46:31;10.70;99.90
9730;DHT22;4904;49.152;11.004;2023-05-07T04:48:59;10.80;99.90
9730;DHT22;4904;49.152;11.004;2023-05-07T04:51:26;10.90;99.90
9730;DHT22;4904;49.152;11.004;2023-05-07T04:53:53;11.00;99.90
9730;DHT22;4904;49.152;11.004;2023-05-07T04:56:20;11.10;99.90
9730;DHT22;4904;49.152;11.004;2023-05-07T04:58:47;11.20;99.90
9730;DHT22;4904;49.152;11.004;2023-05-07T05:01:14;11.30;99.90
9730;DHT22;4904;49.152;11.004;2023-05-07T05:03:40;11.40;99.90
9730;DHT22;4904;49.152;11.004;2023-05-07T05:06:10;11.40;99.90
9730;DHT22;4904;49.152;11.004;2023-05-07T05:08:36;11.40;99.90
9730;DHT22;4904;49.152;11.004;2023-05-07T05:11:03;11.40;99.90
9730;DHT22;4904;49.152;11.004;2023-05-07T05:13:30;11.50;99.90
9730;DHT22;4904;49.152;11.004;2023-05-07T05:15:57;11.40;99.90
9730;DHT22;4904;49.152;11.004;2023-05-07T05:18:24;11.40;99.90
9730;DHT22;4904;49.152;11.004;2023-05-07T05:20:51;11.40;99.90
9730;DHT22;4904;49.152;11.004;2023-05-07T05:23:19;11.50;99.90
9730;DHT22;4904;49.152;11.004;2023-05-07T05:25:46;11.50;99.90
9730;DHT22;4904;49.152;11.004;2023-05-07T05:28:13;11.50;99.90
9730;DHT22;4904;49.152;11.004;2023-05-07T05:30:40;11.50;99.90
9730;DHT22;4904;49.152;11.004;2023-05-07T05:33:07;11.50;99.90
9730;DHT22;4904;49.152;11.004;2023-05-07T05:35:34;11.60;99.90
9730;DHT22;4904;49.152;11.004;2023-05-07T05:38:01;11.70;99.90
9730;DHT22;4904;49.152;11.004;2023-05-07T05:40:29;11.70;99.90
9730;DHT22;4904;49.152;11.004;2023-05-07T05:42:56;11.90;99.90
9730;DHT22;4904;49.152;11.004;2023-05-07T05:45:22;12.00;99.90
9730;DHT22;4904;49.152;11.004;2023-05-07T05:47:49;12.10;99.90
9730;DHT22;4904;49.152;11.004;2023-05-07T05:50:16;12.20;99.90
9730;DHT22;4904;49.152;11.004;2023-05-07T05:52:43;12.30;99.90
9730;DHT22;4904;49.152;11.004;2023-05-07T05:55:10;12.30;99.90
9730;DHT22;4904;49.152;11.004;2023-05-07T05:57:38;12.40;99.90
9730;DHT22;4904;49.152;11.004;2023-05-07T06:00:06;12.50;99.90
9730;DHT22;4904;49.152;11.004;2023-05-07T06:02:34;12.60;99.90
9730;DHT22;4904;49.152;11.004;2023-05-07T06:05:01;12.70;99.90
9730;DHT22;4904;49.152;11.004;2023-05-07T06:07:28;12.60;99.90
9730;DHT22;4904;49.152;11.004;2023-05-07T06:09:54;12.80;99.90
9730;DHT22;4904;49.152;11.004;2023-05-07T06:12:21;12.90;99.90
9730;DHT22;4904;49.152;11.004;2023-05-07T06:14:49;13.00;99.90
9730;DHT22;4904;49.152;11.004;2023-05-07T06:17:16;13.10;99.90
9730;DHT22;4904;49.152;11.004;2023-05-07T06:19:43;13.30;99.90
9730;DHT22;4904;49.152;11.004;2023-05-07T06:22:10;13.40;99.90
9730;DHT22;4904;49.152;11.004;2023-05-07T06:24:37;13.40;99.90
9730;DHT22;4904;49.152;11.004;2023-05-07T06:27:04;13.50;99.90
9730;DHT22;4904;49.152;11.004;2023-05-07T06:29:31;13.50;99.90
9730;DHT22;4904;49.152;11.004;2023-05-07T06:32:07;13.60;99.90
9730;DHT22;4904;49.152;11.004;2023-05-07T06:34:34;13.80;99.90
9730;DHT22;4904;49.152;11.004;2023-05-07T06:37:02;13.90;99.90
9730;DHT22;4904;49.152;11.004;2023-05-07T06:39:29;13.90;99.90
9730;DHT22;4904;49.152;11.004;2023-05-07T06:41:56;14.00;99.90
9730;DHT22;4904;49.152;11.004;2023-05-07T06:44:23;14.00;99.90
9730;DHT22;4904;49.152;11.004;2023-05-07T06:46:50;14.10;99.90
9730;DHT22;4904;49.152;11.004;2023-05-07T06:49:18;14.20;99.90
9730;DHT22;4904;49.152;11.004;2023-05-07T06:51:45;14.30;99.90
9730;DHT22;4904;49.152;11.004;2023-05-07T06:54:12;14.40;99.90
9730;DHT22;4904;49.152;11.004;2023-05-07T06:56:38;14.50;99.90
9730;DHT22;4904;49.152;11.004;2023-05-07T06:59:06;14.60;99.90
9730;DHT22;4904;49.152;11.004;2023-05-07T07:01:33;14.70;99.90
9730;DHT22;4904;49.152;11.004;2023-05-07T07:04:00;14.80;99.90
9730;DHT22;4904;49.152;11.004;2023-05-07T07:06:28;14.90;99.90
9730;DHT22;4904;49.152;11.004;2023-05-07T07:08:57;15.00;99.90
9730;DHT22;4904;49.152;11.004;2023-05-07T07:11:24;15.10;99.90
9730;DHT22;4904;49.152;11.004;2023-05-07T07:13:50;15.30;99.90
9730;DHT22;4904;49.152;11.004;2023-05-07T07:16:19;15.30;99.90
9730;DHT22;4904;49.152;11.004;2023-05-07T07:18:46;15.50;99.90
9730;DHT22;4904;49.152;11.004;2023-05-07T07:21:13;15.60;99.90
9730;DHT22;4904;49.152;11.004;2023-05-07T07:23:41;15.70;99.90
9730;DHT22;4904;49.152;11.004;2023-05-07T07:26:08;15.80;99.90
9730;DHT22;4904;49.152;11.004;2023-05-07T07:28:36;15.90;99.90
9730;DHT22;4904;49.152;11.004;2023-05-07T07:31:08;16.00;99.90
9730;DHT22;4904;49.152;11.004;2023-05-07T07:33:35;16.10;99.90
9730;DHT22;4904;49.152;11.004;2023-05-07T07:36:02;16.20;99.90
9730;DHT22;4904;49.152;11.004;2023-05-07T07:38:29;16.30;99.90
9730;DHT22;4904;49.152;11.004;2023-05-07T07:40:57;16.40;99.90
9730;DHT22;4904;49.152;11.004;2023-05-07T07:43:24;16.40;99.90
9730;DHT22;4904;49.152;11.004;2023-05-07T07:45:51;16.60;99.90
9730;DHT22;4904;49.152;11.004;2023-05-07T07:48:18;16.80;99.90
9730;DHT22;4904;49.152;11.004;2023-05-07T07:50:44;17.00;99.90
9730;DHT22;4904;49.152;11.004;2023-05-07T07:53:11;17.10;99.90
9730;DHT22;4904;49.152;11.004;2023-05-07T07:55:39;17.20;99.90
9730;DHT22;4904;49.152;11.004;2023-05-07T07:58:07;17.30;99.90
9730;DHT22;4904;49.152;11.004;2023-05-07T08:00:34;17.40;99.90
9730;DHT22;4904;49.152;11.004;2023-05-07T08:03:01;17.50;99.90
9730;DHT22;4904;49.152;11.004;2023-05-07T08:05:28;17.80;99.90
9730;DHT22;4904;49.152;11.004;2023-05-07T08:07:55;17.70;99.90
9730;DHT22;4904;49.152;11.004;2023-05-07T08:10:22;17.70;99.90
9730;DHT22;4904;49.152;11.004;2023-05-07T08:12:49;17.80;99.90
9730;DHT22;4904;49.152;11.004;2023-05-07T08:15:18;17.90;99.90
9730;DHT22;4904;49.152;11.004;2023-05-07T08:17:45;17.80;99.90
9730;DHT22;4904;49.152;11.004;2023-05-07T08:20:11;17.90;99.90
9730;DHT22;4904;49.152;11.004;2023-05-07T08:22:38;18.00;99.90
9730;DHT22;4904;49.152;11.004;2023-05-07T08:25:06;18.10;99.90
9730;DHT22;4904;49.152;11.004;2023-05-07T08:27:32;18.10;99.90
9730;DHT22;4904;49.152;11.004;2023-05-07T08:29:59;18.20;99.90
9730;DHT22;4904;49.152;11.004;2023-05-07T08:32:28;18.20;99.90
9730;DHT22;4904;49.152;11.004;2023-05-07T08:34:54;18.40;99.90
9730;DHT22;4904;49.152;11.004;2023-05-07T08:37:21;18.40;99.90
9730;DHT22;4904;49.152;11.004;2023-05-07T08:39:48;18.50;99.90
9730;DHT22;4904;49.152;11.004;2023-05-07T08:42:16;18.50;99.90
9730;DHT22;4904;49.152;11.004;2023-05-07T08:44:45;18.50;99.90
9730;DHT22;4904;49.152;11.004;2023-05-07T08:47:13;18.60;99.90
9730;DHT22;4904;49.152;11.004;2023-05-07T08:49:42;18.70;99.90
9730;DHT22;4904;49.152;11.004;2023-05-07T08:52:08;18.80;99.90
9730;DHT22;4904;49.152;11.004;2023-05-07T08:54:37;18.90;99.90
9730;DHT22;4904;49.152;11.004;2023-05-07T08:57:04;19.00;99.90
9730;DHT22;4904;49.152;11.004;2023-05-07T08:59:31;19.10;99.90
9730;DHT22;4904;49.152;11.004;2023-05-07T09:01:57;19.20;99.90
9730;DHT22;4904;49.152;11.004;2023-05-07T09:04:24;19.20;99.90
9730;DHT22;4904;49.152;11.004;2023-05-07T09:06:52;19.30;99.90
9730;DHT22;4904;49.152;11.004;2023-05-07T09:09:21;19.40;99.90
9730;DHT22;4904;49.152;11.004;2023-05-07T09:11:48;19.60;99.90
9730;DHT22;4904;49.152;11.004;2023-05-07T09:14:16;19.70;99.90
9730;DHT22;4904;49.152;11.004;2023-05-07T09:16:43;19.70;99.90
9730;DHT22;4904;49.152;11.004;2023-05-07T09:19:10;19.80;99.90
9730;DHT22;4904;49.152;11.004;2023-05-07T09:21:37;19.90;99.90
9730;DHT22;4904;49.152;11.004;2023-05-07T09:24:05;19.80;99.90
9730;DHT22;4904;49.152;11.004;2023-05-07T09:26:32;19.80;99.90
9730;DHT22;4904;49.152;11.004;2023-05-07T09:29:00;19.60;99.90
9730;DHT22;4904;49.152;11.004;2023-05-07T09:31:27;19.70;99.90
9730;DHT22;4904;49.152;11.004;2023-05-07T09:33:54;19.80;99.90
9730;DHT22;4904;49.152;11.004;2023-05-07T09:36:21;19.90;99.90
9730;DHT22;4904;49.152;11.004;2023-05-07T09:38:48;19.90;99.90
9730;DHT22;4904;49.152;11.004;2023-05-07T09:41:18;19.90;99.90
9730;DHT22;4904;49.152;11.004;2023-05-07T09:43:46;20.00;99.90
9730;DHT22;4904;49.152;11.004;2023-05-07T09:46:25;20.00;99.90
9730;DHT22;4904;49.152;11.004;2023-05-07T09:48:53;20.10;99.90
9730;DHT22;4904;49.152;11.004;2023-05-07T09:51:28;20.20;99.90
9730;DHT22;4904;49.152;11.004;2023-05-07T09:53:56;20.30;99.90
9730;DHT22;4904;49.152;11.004;2023-05-07T09:56:26;20.20;99.90
9730;DHT22;4904;49.152;11.004;2023-05-07T09:58:54;20.20;99.90
9730;DHT22;4904;49.152;11.004;2023-05-07T10:01:24;20.10;99.90
9730;DHT22;4904;49.152;11.004;2023-05-07T10:03:52;20.00;99.90
9730;DHT22;4904;49.152;11.004;2023-05-07T10:06:20;20.10;99.90
9730;DHT22;4904;49.152;11.004;2023-05-07T10:08:47;20.20;99.90
9730;DHT22;4904;49.152;11.004;2023-05-07T10:11:15;20.30;99.90
9730;DHT22;4904;49.152;11.004;2023-05-07T10:13:46;20.30;99.90
9730;DHT22;4904;49.152;11.004;2023-05-07T10:16:13;20.30;99.90
9730;DHT22;4904;49.152;11.004;2023-05-07T10:18:40;20.40;99.90
9730;DHT22;4904;49.152;11.004;2023-05-07T10:21:10;20.40;99.90
9730;DHT22;4904;49.152;11.004;2023-05-07T10:23:38;20.40;99.90
9730;DHT22;4904;49.152;11.004;2023-05-07T10:26:08;20.50;99.90
9730;DHT22;4904;49.152;11.004;2023-05-07T10:28:38;20.60;99.90
9730;DHT22;4904;49.152;11.004;2023-05-07T10:31:27;20.60;99.90
9730;DHT22;4904;49.152;11.004;2023-05-07T10:33:56;20.60;99.90
9730;DHT22;4904;49.152;11.004;2023-05-07T10:36:24;20.70;99.90
9730;DHT22;4904;49.152;11.004;2023-05-07T10:38:52;20.90;99.90
9730;DHT22;4904;49.152;11.004;2023-05-07T10:41:19;20.90;99.90
9730;DHT22;4904;49.152;11.004;2023-05-07T10:43:47;21.00;99.90
9730;DHT22;4904;49.152;11.004;2023-05-07T10:46:17;21.10;99.90
9730;DHT22;4904;49.152;11.004;2023-05-07T10:49:09;21.20;99.90
9730;DHT22;4904;49.152;11.004;2023-05-07T10:51:37;21.30;99.90
9730;DHT22;4904;49.152;11.004;2023-05-07T10:54:23;21.20;99.90
9730;DHT22;4904;49.152;11.004;2023-05-07T10:56:52;21.30;99.90
9730;DHT22;4904;49.152;11.004;2023-05-07T10:59:34;21.40;99.90
9730;DHT22;4904;49.152;11.004;2023-05-07T11:02:09;21.50;99.90
9730;DHT22;4904;49.152;11.004;2023-05-07T11:04:37;21.50;99.90
9730;DHT22;4904;49.152;11.004;2023-05-07T11:10:06;21.50;99.90
9730;DHT22;4904;49.152;11.004;2023-05-07T11:12:52;21.60;99.90
9730;DHT22;4904;49.152;11.004;2023-05-07T11:15:38;21.80;99.90
9730;DHT22;4904;49.152;11.004;2023-05-07T11:18:09;21.80;99.90
9730;DHT22;4904;49.152;11.004;2023-05-07T11:20:50;21.80;99.90
9730;DHT22;4904;49.152;11.004;2023-05-07T11:26:46;21.90;99.90
9730;DHT22;4904;49.152;11.004;2023-05-07T11:29:15;22.00;99.90
9730;DHT22;4904;49.152;11.004;2023-05-07T11:31:43;22.00;99.90
9730;DHT22;4904;49.152;11.004;2023-05-07T11:34:12;21.80;99.90
9730;DHT22;4904;49.152;11.004;2023-05-07T11:36:42;21.90;99.90
9730;DHT22;4904;49.152;11.004;2023-05-07T11:39:30;21.90;99.90
9730;DHT22;4904;49.152;11.004;2023-05-07T11:41:58;22.00;99.90
9730;DHT22;4904;49.152;11.004;2023-05-07T11:44:25;22.10;99.90
9730;DHT22;4904;49.152;11.004;2023-05-07T11:46:52;22.30;99.90
9730;DHT22;4904;49.152;11.004;2023-05-07T11:49:20;22.20;99.90
9730;DHT22;4904;49.152;11.004;2023-05-07T11:51:47;22.30;99.90
9730;DHT22;4904;49.152;11.004;2023-05-07T11:54:17;22.40;99.90
9730;DHT22;4904;49.152;11.004;2023-05-07T11:56:44;22.30;99.90
9730;DHT22;4904;49.152;11.004;2023-05-07T11:59:17;22.30;99.90
9730;DHT22;4904;49.152;11.004;2023-05-07T12:01:46;22.20;99.90
9730;DHT22;4904;49.152;11.004;2023-05-07T12:04:13;22.00;99.90
9730;DHT22;4904;49.152;11.004;2023-05-07T12:06:41;22.00;99.90
9730;DHT22;4904;49.152;11.004;2023-05-07T12:09:08;21.90;99.90
9730;DHT22;4904;49.152;11.004;2023-05-07T12:11:37;21.90;99.90
9730;DHT22;4904;49.152;11.004;2023-05-07T12:14:06;21.90;99.90
9730;DHT22;4904;49.152;11.004;2023-05-07T12:16:33;21.90;99.90
9730;DHT22;4904;49.152;11.004;2023-05-07T12:19:00;22.10;99.90
9730;DHT22;4904;49.152;11.004;2023-05-07T12:21:27;22.30;99.90
9730;DHT22;4904;49.152;11.004;2023-05-07T12:23:56;22.50;99.90
9730;DHT22;4904;49.152;11.004;2023-05-07T12:26:23;22.50;99.90
9730;DHT22;4904;49.152;11.004;2023-05-07T12:28:50;22.70;99.90
9730;DHT22;4904;49.152;11.004;2023-05-07T12:31:17;22.80;99.90
9730;DHT22;4904;49.152;11.004;2023-05-07T12:33:45;22.90;99.90
9730;DHT22;4904;49.152;11.004;2023-05-07T12:36:13;23.10;99.90
9730;DHT22;4904;49.152;11.004;2023-05-07T12:38:40;23.20;99.90
9730;DHT22;4904;49.152;11.004;2023-05-07T12:41:10;23.40;99.90
9730;DHT22;4904;49.152;11.004;2023-05-07T12:43:38;23.50;99.90
9730;DHT22;4904;49.152;11.004;2023-05-07T12:46:06;23.70;99.90
9730;DHT22;4904;49.152;11.004;2023-05-07T12:48:33;23.70;99.90
9730;DHT22;4904;49.152;11.004;2023-05-07T12:51:02;23.70;99.90
9730;DHT22;4904;49.152;11.004;2023-05-07T12:53:30;23.80;99.90
9730;DHT22;4904;49.152;11.004;2023-05-07T12:55:58;23.70;99.90
9730;DHT22;4904;49.152;11.004;2023-05-07T12:58:28;23.60;99.90
9730;DHT22;4904;49.152;11.004;2023-05-07T13:00:56;23.40;99.90
9730;DHT22;4904;49.152;11.004;2023-05-07T13:03:26;23.50;99.90
9730;DHT22;4904;49.152;11.004;2023-05-07T13:05:57;23.60;99.90
9730;DHT22;4904;49.152;11.004;2023-05-07T13:08:29;23.60;99.90
9730;DHT22;4904;49.152;11.004;2023-05-07T13:10:57;23.60;99.90
9730;DHT22;4904;49.152;11.004;2023-05-07T13:13:26;23.70;99.90
9730;DHT22;4904;49.152;11.004;2023-05-07T13:15:52;23.70;99.90
9730;DHT22;4904;49.152;11.004;2023-05-07T13:18:19;23.70;99.90
9730;DHT22;4904;49.152;11.004;2023-05-07T13:20:46;23.70;99.90
9730;DHT22;4904;49.152;11.004;2023-05-07T13:23:13;23.70;99.90
9730;DHT22;4904;49.152;11.004;2023-05-07T13:25:40;23.80;99.90
9730;DHT22;4904;49.152;11.004;2023-05-07T13:28:07;23.80;99.90
9730;DHT22;4904;49.152;11.004;2023-05-07T13:30:35;24.00;99.90
9730;DHT22;4904;49.152;11.004;2023-05-07T13:33:02;24.10;99.90
9730;DHT22;4904;49.152;11.004;2023-05-07T13:35:29;24.30;99.90
9730;DHT22;4904;49.152;11.004;2023-05-07T13:37:56;24.40;99.90
9730;DHT22;4904;49.152;11.004;2023-05-07T13:40:23;24.40;99.90
9730;DHT22;4904;49.152;11.004;2023-05-07T13:42:50;24.60;99.90
9730;DHT22;4904;49.152;11.004;2023-05-07T13:45:18;24.60;99.90
9730;DHT22;4904;49.152;11.004;2023-05-07T13:47:46;24.50;99.90
9730;DHT22;4904;49.152;11.004;2023-05-07T13:50:15;24.60;99.90
9730;DHT22;4904;49.152;11.004;2023-05-07T13:52:43;24.70;99.90
9730;DHT22;4904;49.152;11.004;2023-05-07T13:55:16;24.90;99.90
9730;DHT22;4904;49.152;11.004;2023-05-07T13:57:43;24.90;99.90
9730;DHT22;4904;49.152;11.004;2023-05-07T14:00:11;25.10;99.90
9730;DHT22;4904;49.152;11.004;2023-05-07T14:02:38;25.10;99.90
9730;DHT22;4904;49.152;11.004;2023-05-07T14:05:06;25.20;99.90
9730;DHT22;4904;49.152;11.004;2023-05-07T14:07:34;25.20;99.90
9730;DHT22;4904;49.152;11.004;2023-05-07T14:10:01;25.20;99.90
9730;DHT22;4904;49.152;11.004;2023-05-07T14:12:28;25.20;99.90
9730;DHT22;4904;49.152;11.004;2023-05-07T14:14:55;25.30;99.90
9730;DHT22;4904;49.152;11.004;2023-05-07T14:17:22;25.30;99.90
9730;DHT22;4904;49.152;11.004;2023-05-07T14:19:50;25.30;99.90
9730;DHT22;4904;49.152;11.004;2023-05-07T14:22:20;25.30;99.90
9730;DHT22;4904;49.152;11.004;2023-05-07T14:24:47;25.20;99.90
9730;DHT22;4904;49.152;11.004;2023-05-07T14:27:14;25.10;99.90
9730;DHT22;4904;49.152;11.004;2023-05-07T14:29:41;25.00;99.90
9730;DHT22;4904;49.152;11.004;2023-05-07T14:32:08;25.00;99.90
9730;DHT22;4904;49.152;11.004;2023-05-07T14:34:35;25.00;99.90
9730;DHT22;4904;49.152;11.004;2023-05-07T14:37:03;24.90;99.90
9730;DHT22;4904;49.152;11.004;2023-05-07T14:39:31;24.90;99.90
9730;DHT22;4904;49.152;11.004;2023-05-07T14:41:58;24.90;99.90
9730;DHT22;4904;49.152;11.004;2023-05-07T14:44:25;24.90;99.90
9730;DHT22;4904;49.152;11.004;2023-05-07T14:46:52;24.80;99.90
9730;DHT22;4904;49.152;11.004;2023-05-07T14:49:19;24.80;99.90
9730;DHT22;4904;49.152;11.004;2023-05-07T14:51:46;24.80;99.90
9730;DHT22;4904;49.152;11.004;2023-05-07T14:54:14;24.60;99.90
9730;DHT22;4904;49.152;11.004;2023-05-07T14:56:42;24.60;99.90
9730;DHT22;4904;49.152;11.004;2023-05-07T14:59:09;24.60;99.90
9730;DHT22;4904;49.152;11.004;2023-05-07T15:01:37;24.70;99.90
9730;DHT22;4904;49.152;11.004;2023-05-07T15:04:06;24.60;99.90
9730;DHT22;4904;49.152;11.004;2023-05-07T15:06:32;24.60;99.90
9730;DHT22;4904;49.152;11.004;2023-05-07T15:09:00;24.50;99.90
9730;DHT22;4904;49.152;11.004;2023-05-07T15:11:27;24.40;99.90
9730;DHT22;4904;49.152;11.004;2023-05-07T15:13:55;24.50;99.90
9730;DHT22;4904;49.152;11.004;2023-05-07T15:16:22;24.20;99.90
9730;DHT22;4904;49.152;11.004;2023-05-07T15:18:49;24.30;99.90
9730;DHT22;4904;49.152;11.004;2023-05-07T15:21:16;24.40;99.90
9730;DHT22;4904;49.152;11.004;2023-05-07T15:23:43;24.40;99.90
9730;DHT22;4904;49.152;11.004;2023-05-07T15:26:10;24.40;99.90
9730;DHT22;4904;49.152;11.004;2023-05-07T15:28:37;24.40;99.90
9730;DHT22;4904;49.152;11.004;2023-05-07T15:31:06;24.30;99.90
9730;DHT22;4904;49.152;11.004;2023-05-07T15:33:34;24.40;99.90
9730;DHT22;4904;49.152;11.004;2023-05-07T15:36:01;24.20;99.90
9730;DHT22;4904;49.152;11.004;2023-05-07T15:38:28;24.20;99.90
9730;DHT22;4904;49.152;11.004;2023-05-07T15:40:55;24.20;99.90
9730;DHT22;4904;49.152;11.004;2023-05-07T15:43:22;24.20;99.90
9730;DHT22;4904;49.152;11.004;2023-05-07T15:45:50;24.00;99.90
9730;DHT22;4904;49.152;11.004;2023-05-07T15:48:18;23.60;99.90
9730;DHT22;4904;49.152;11.004;2023-05-07T15:50:45;23.60;99.90
9730;DHT22;4904;49.152;11.004;2023-05-07T15:53:12;23.70;99.90
9730;DHT22;4904;49.152;11.004;2023-05-07T15:55:40;23.70;99.90
9730;DHT22;4904;49.152;11.004;2023-05-07T15:58:07;23.70;99.90